Kingston, New Mexico
Current Conditions -  °F | °C
As of 1:53 AM on Wednesday 26 Nov 2014 (Local Time) from KTCS Reporting Station
Clear Clear  
Wind Chill:   Ceiling: Unl
Heat Index:   Visibility: 10mi
Dew Point: -12°   Wind: 0mph
Humidity: 38%   Direction: NA
Pressure: 30.31"   Gusts: NA
Location:  32.8972°N, 107.644°W
Report Text: KTCS 260853Z AUTO 00000KT 10SM CLR 01/M12 A3031 RMK AO2 SLP243 T00111117 53005 TSNO
Loading
Personal Weather Stations






























Interactive Weather Map New forecast layout! Learn more

10-Day Weather Forecast

Advertisements
Track Severe Weather on mobile